sensor_id;sensor_type;location;lat;lon;timestamp;temperature;humidity
4727;DHT22;2377;51.734;8.950;2023-02-18T00:02:16;8.30;99.90
4727;DHT22;2377;51.734;8.950;2023-02-18T00:04:43;8.30;99.90
4727;DHT22;2377;51.734;8.950;2023-02-18T00:07:10;8.40;99.90
4727;DHT22;2377;51.734;8.950;2023-02-18T00:09:37;8.40;99.90
4727;DHT22;2377;51.734;8.950;2023-02-18T00:12:06;8.50;99.90
4727;DHT22;2377;51.734;8.950;2023-02-18T00:14:33;8.50;99.90
4727;DHT22;2377;51.734;8.950;2023-02-18T00:17:00;8.60;99.90
4727;DHT22;2377;51.734;8.950;2023-02-18T00:19:27;8.50;99.90
4727;DHT22;2377;51.734;8.950;2023-02-18T00:21:54;8.60;99.90
4727;DHT22;2377;51.734;8.950;2023-02-18T00:24:21;8.60;99.90
4727;DHT22;2377;51.734;8.950;2023-02-18T00:26:50;8.60;99.90
4727;DHT22;2377;51.734;8.950;2023-02-18T00:29:19;8.60;99.90
4727;DHT22;2377;51.734;8.950;2023-02-18T00:31:46;8.60;99.90
4727;DHT22;2377;51.734;8.950;2023-02-18T00:34:13;8.60;99.90
4727;DHT22;2377;51.734;8.950;2023-02-18T00:36:41;8.70;99.90
4727;DHT22;2377;51.734;8.950;2023-02-18T00:39:10;8.80;99.90
4727;DHT22;2377;51.734;8.950;2023-02-18T00:41:38;8.80;99.90
4727;DHT22;2377;51.734;8.950;2023-02-18T00:44:05;8.80;99.90
4727;DHT22;2377;51.734;8.950;2023-02-18T00:46:34;8.80;99.90
4727;DHT22;2377;51.734;8.950;2023-02-18T00:49:02;8.80;99.90
4727;DHT22;2377;51.734;8.950;2023-02-18T00:51:30;8.80;99.90
4727;DHT22;2377;51.734;8.950;2023-02-18T00:53:58;8.80;99.90
4727;DHT22;2377;51.734;8.950;2023-02-18T00:56:25;8.80;99.90
4727;DHT22;2377;51.734;8.950;2023-02-18T00:58:52;8.80;99.90
4727;DHT22;2377;51.734;8.950;2023-02-18T01:01:19;8.80;99.90
4727;DHT22;2377;51.734;8.950;2023-02-18T01:03:48;8.90;99.90
4727;DHT22;2377;51.734;8.950;2023-02-18T01:06:15;8.90;99.90
4727;DHT22;2377;51.734;8.950;2023-02-18T01:08:43;8.90;99.90
4727;DHT22;2377;51.734;8.950;2023-02-18T01:11:11;8.80;99.90
4727;DHT22;2377;51.734;8.950;2023-02-18T01:13:39;8.80;99.90
4727;DHT22;2377;51.734;8.950;2023-02-18T01:16:08;8.80;99.90
4727;DHT22;2377;51.734;8.950;2023-02-18T01:18:36;8.80;99.90
4727;DHT22;2377;51.734;8.950;2023-02-18T01:21:05;8.80;99.90
4727;DHT22;2377;51.734;8.950;2023-02-18T01:23:33;8.90;99.90
4727;DHT22;2377;51.734;8.950;2023-02-18T01:26:00;8.80;99.90
4727;DHT22;2377;51.734;8.950;2023-02-18T01:28:27;8.90;99.90
4727;DHT22;2377;51.734;8.950;2023-02-18T01:30:54;9.00;99.90
4727;DHT22;2377;51.734;8.950;2023-02-18T01:33:22;8.80;99.90
4727;DHT22;2377;51.734;8.950;2023-02-18T01:35:51;8.80;99.90
4727;DHT22;2377;51.734;8.950;2023-02-18T01:38:20;8.90;99.90
4727;DHT22;2377;51.734;8.950;2023-02-18T01:40:49;9.00;99.90
4727;DHT22;2377;51.734;8.950;2023-02-18T01:43:18;9.00;99.90
4727;DHT22;2377;51.734;8.950;2023-02-18T01:45:56;9.00;99.90
4727;DHT22;2377;51.734;8.950;2023-02-18T01:48:29;9.00;99.90
4727;DHT22;2377;51.734;8.950;2023-02-18T01:51:02;8.90;99.90
4727;DHT22;2377;51.734;8.950;2023-02-18T01:53:40;9.00;99.90
4727;DHT22;2377;51.734;8.950;2023-02-18T01:56:15;9.00;99.90
4727;DHT22;2377;51.734;8.950;2023-02-18T01:58:47;8.90;99.90
4727;DHT22;2377;51.734;8.950;2023-02-18T02:01:15;8.90;99.90
4727;DHT22;2377;51.734;8.950;2023-02-18T02:03:42;9.00;99.90
4727;DHT22;2377;51.734;8.950;2023-02-18T02:06:14;9.00;99.90
4727;DHT22;2377;51.734;8.950;2023-02-18T02:08:44;9.00;99.90
4727;DHT22;2377;51.734;8.950;2023-02-18T02:11:28;9.00;99.90
4727;DHT22;2377;51.734;8.950;2023-02-18T02:14:21;9.00;99.90
4727;DHT22;2377;51.734;8.950;2023-02-18T02:17:02;9.00;99.90
4727;DHT22;2377;51.734;8.950;2023-02-18T02:19:53;9.00;99.90
4727;DHT22;2377;51.734;8.950;2023-02-18T02:26:41;9.10;99.90
4727;DHT22;2377;51.734;8.950;2023-02-18T02:30:00;9.00;99.90
4727;DHT22;2377;51.734;8.950;2023-02-18T02:33:12;9.10;99.90
4727;DHT22;2377;51.734;8.950;2023-02-18T02:36:04;9.10;99.90
4727;DHT22;2377;51.734;8.950;2023-02-18T02:38:43;9.10;99.90
4727;DHT22;2377;51.734;8.950;2023-02-18T02:41:30;9.10;99.90
4727;DHT22;2377;51.734;8.950;2023-02-18T02:44:12;9.10;99.90
4727;DHT22;2377;51.734;8.950;2023-02-18T02:46:47;9.20;99.90
4727;DHT22;2377;51.734;8.950;2023-02-18T02:49:25;9.10;99.90
4727;DHT22;2377;51.734;8.950;2023-02-18T02:52:03;9.20;99.90
4727;DHT22;2377;51.734;8.950;2023-02-18T02:54:34;9.20;99.90
4727;DHT22;2377;51.734;8.950;2023-02-18T02:57:06;9.30;99.90
4727;DHT22;2377;51.734;8.950;2023-02-18T02:59:38;9.30;99.90
4727;DHT22;2377;51.734;8.950;2023-02-18T03:02:21;9.30;99.90
4727;DHT22;2377;51.734;8.950;2023-02-18T03:05:09;9.30;99.90
4727;DHT22;2377;51.734;8.950;2023-02-18T03:07:58;9.40;99.90
4727;DHT22;2377;51.734;8.950;2023-02-18T03:10:48;9.30;99.90
4727;DHT22;2377;51.734;8.950;2023-02-18T03:13:32;9.30;99.90
4727;DHT22;2377;51.734;8.950;2023-02-18T03:16:15;9.30;99.90
4727;DHT22;2377;51.734;8.950;2023-02-18T03:18:53;9.40;99.90
4727;DHT22;2377;51.734;8.950;2023-02-18T03:21:29;9.40;99.90
4727;DHT22;2377;51.734;8.950;2023-02-18T03:24:03;9.40;99.90
4727;DHT22;2377;51.734;8.950;2023-02-18T03:26:36;9.40;99.90
4727;DHT22;2377;51.734;8.950;2023-02-18T03:29:09;9.50;99.90
4727;DHT22;2377;51.734;8.950;2023-02-18T03:31:42;9.50;99.90
4727;DHT22;2377;51.734;8.950;2023-02-18T03:34:15;9.50;99.90
4727;DHT22;2377;51.734;8.950;2023-02-18T03:36:45;9.60;99.90
4727;DHT22;2377;51.734;8.950;2023-02-18T03:39:16;9.60;99.90
4727;DHT22;2377;51.734;8.950;2023-02-18T03:41:45;9.60;99.90
4727;DHT22;2377;51.734;8.950;2023-02-18T03:44:12;9.50;99.90
4727;DHT22;2377;51.734;8.950;2023-02-18T03:46:42;9.50;99.90
4727;DHT22;2377;51.734;8.950;2023-02-18T03:49:12;9.60;99.90
4727;DHT22;2377;51.734;8.950;2023-02-18T03:51:41;9.60;99.90
4727;DHT22;2377;51.734;8.950;2023-02-18T03:54:08;9.60;99.90
4727;DHT22;2377;51.734;8.950;2023-02-18T03:56:39;9.60;99.90
4727;DHT22;2377;51.734;8.950;2023-02-18T03:59:07;9.60;99.90
4727;DHT22;2377;51.734;8.950;2023-02-18T04:01:35;9.60;99.90
4727;DHT22;2377;51.734;8.950;2023-02-18T04:04:02;9.70;99.90
4727;DHT22;2377;51.734;8.950;2023-02-18T04:06:29;9.60;99.90
4727;DHT22;2377;51.734;8.950;2023-02-18T04:08:56;9.60;99.90
4727;DHT22;2377;51.734;8.950;2023-02-18T04:11:23;9.60;99.90
4727;DHT22;2377;51.734;8.950;2023-02-18T04:13:52;9.60;99.90
4727;DHT22;2377;51.734;8.950;2023-02-18T04:16:19;9.60;99.90
4727;DHT22;2377;51.734;8.950;2023-02-18T04:18:46;9.70;99.90
4727;DHT22;2377;51.734;8.950;2023-02-18T04:21:13;9.60;99.90
4727;DHT22;2377;51.734;8.950;2023-02-18T04:23:40;9.70;99.90
4727;DHT22;2377;51.734;8.950;2023-02-18T04:26:07;9.60;99.90
4727;DHT22;2377;51.734;8.950;2023-02-18T04:28:34;9.60;99.90
4727;DHT22;2377;51.734;8.950;2023-02-18T04:31:03;9.70;99.90
4727;DHT22;2377;51.734;8.950;2023-02-18T04:33:30;9.60;99.90
4727;DHT22;2377;51.734;8.950;2023-02-18T04:35:57;9.70;99.90
4727;DHT22;2377;51.734;8.950;2023-02-18T04:38:24;9.70;99.90
4727;DHT22;2377;51.734;8.950;2023-02-18T04:40:51;9.70;99.90
4727;DHT22;2377;51.734;8.950;2023-02-18T04:43:18;9.70;99.90
4727;DHT22;2377;51.734;8.950;2023-02-18T04:45:46;9.70;99.90
4727;DHT22;2377;51.734;8.950;2023-02-18T04:48:14;9.80;99.90
4727;DHT22;2377;51.734;8.950;2023-02-18T04:50:43;9.70;99.90
4727;DHT22;2377;51.734;8.950;2023-02-18T04:53:10;9.80;99.90
4727;DHT22;2377;51.734;8.950;2023-02-18T04:55:37;9.70;99.90
4727;DHT22;2377;51.734;8.950;2023-02-18T04:58:04;9.70;99.90
4727;DHT22;2377;51.734;8.950;2023-02-18T05:00:31;9.70;99.90
4727;DHT22;2377;51.734;8.950;2023-02-18T05:02:58;9.70;99.90
4727;DHT22;2377;51.734;8.950;2023-02-18T05:05:26;9.80;99.90
4727;DHT22;2377;51.734;8.950;2023-02-18T05:07:53;9.80;99.90
4727;DHT22;2377;51.734;8.950;2023-02-18T05:10:21;9.80;99.90
4727;DHT22;2377;51.734;8.950;2023-02-18T05:12:48;9.80;99.90
4727;DHT22;2377;51.734;8.950;2023-02-18T05:15:15;9.80;99.90
4727;DHT22;2377;51.734;8.950;2023-02-18T05:17:42;9.80;99.90
4727;DHT22;2377;51.734;8.950;2023-02-18T05:20:10;9.80;99.90
4727;DHT22;2377;51.734;8.950;2023-02-18T05:22:39;9.80;99.90
4727;DHT22;2377;51.734;8.950;2023-02-18T05:25:06;9.80;99.90
4727;DHT22;2377;51.734;8.950;2023-02-18T05:27:34;9.80;99.90
4727;DHT22;2377;51.734;8.950;2023-02-18T05:30:01;9.80;99.90
4727;DHT22;2377;51.734;8.950;2023-02-18T05:32:28;9.80;99.90
4727;DHT22;2377;51.734;8.950;2023-02-18T05:34:55;9.80;99.90
4727;DHT22;2377;51.734;8.950;2023-02-18T05:37:22;9.80;99.90
4727;DHT22;2377;51.734;8.950;2023-02-18T05:39:51;9.80;99.90
4727;DHT22;2377;51.734;8.950;2023-02-18T05:42:18;9.80;99.90
4727;DHT22;2377;51.734;8.950;2023-02-18T05:44:45;9.80;99.90
4727;DHT22;2377;51.734;8.950;2023-02-18T05:47:12;9.90;99.90
4727;DHT22;2377;51.734;8.950;2023-02-18T05:49:40;9.80;99.90
4727;DHT22;2377;51.734;8.950;2023-02-18T05:52:09;9.80;99.90
4727;DHT22;2377;51.734;8.950;2023-02-18T05:54:38;9.80;99.90
4727;DHT22;2377;51.734;8.950;2023-02-18T05:57:06;9.80;99.90
4727;DHT22;2377;51.734;8.950;2023-02-18T05:59:34;9.90;99.90
4727;DHT22;2377;51.734;8.950;2023-02-18T06:02:01;9.90;99.90
4727;DHT22;2377;51.734;8.950;2023-02-18T06:04:28;9.90;99.90
4727;DHT22;2377;51.734;8.950;2023-02-18T06:06:55;9.90;99.90
4727;DHT22;2377;51.734;8.950;2023-02-18T06:09:22;10.00;99.90
4727;DHT22;2377;51.734;8.950;2023-02-18T06:11:49;10.00;99.90
4727;DHT22;2377;51.734;8.950;2023-02-18T06:14:18;9.90;99.90
4727;DHT22;2377;51.734;8.950;2023-02-18T06:16:45;9.90;99.90
4727;DHT22;2377;51.734;8.950;2023-02-18T06:19:12;10.00;99.90
4727;DHT22;2377;51.734;8.950;2023-02-18T06:21:39;10.00;99.90
4727;DHT22;2377;51.734;8.950;2023-02-18T06:24:06;9.90;99.90
4727;DHT22;2377;51.734;8.950;2023-02-18T06:26:34;10.00;99.90
4727;DHT22;2377;51.734;8.950;2023-02-18T06:29:01;10.00;99.90
4727;DHT22;2377;51.734;8.950;2023-02-18T06:31:30;9.90;99.90
4727;DHT22;2377;51.734;8.950;2023-02-18T06:33:57;9.90;99.90
4727;DHT22;2377;51.734;8.950;2023-02-18T06:36:24;9.90;99.90
4727;DHT22;2377;51.734;8.950;2023-02-18T06:38:51;9.80;99.90
4727;DHT22;2377;51.734;8.950;2023-02-18T06:41:19;9.90;99.90
4727;DHT22;2377;51.734;8.950;2023-02-18T06:43:46;9.90;99.90
4727;DHT22;2377;51.734;8.950;2023-02-18T06:46:13;9.80;99.90
4727;DHT22;2377;51.734;8.950;2023-02-18T06:48:41;9.80;99.90
4727;DHT22;2377;51.734;8.950;2023-02-18T06:51:08;9.80;99.90
4727;DHT22;2377;51.734;8.950;2023-02-18T06:53:35;9.80;99.90
4727;DHT22;2377;51.734;8.950;2023-02-18T06:56:03;9.80;99.90
4727;DHT22;2377;51.734;8.950;2023-02-18T06:58:30;9.90;99.90
4727;DHT22;2377;51.734;8.950;2023-02-18T07:00:57;9.80;99.90
4727;DHT22;2377;51.734;8.950;2023-02-18T07:03:25;9.90;99.90
4727;DHT22;2377;51.734;8.950;2023-02-18T07:05:53;9.90;99.90
4727;DHT22;2377;51.734;8.950;2023-02-18T07:08:20;9.80;99.90
4727;DHT22;2377;51.734;8.950;2023-02-18T07:10:47;9.80;99.90
4727;DHT22;2377;51.734;8.950;2023-02-18T07:13:15;9.90;99.90
4727;DHT22;2377;51.734;8.950;2023-02-18T07:15:42;10.00;99.90
4727;DHT22;2377;51.734;8.950;2023-02-18T07:18:09;9.90;99.90
4727;DHT22;2377;51.734;8.950;2023-02-18T07:20:36;9.90;99.90
4727;DHT22;2377;51.734;8.950;2023-02-18T07:23:04;9.90;99.90
4727;DHT22;2377;51.734;8.950;2023-02-18T07:25:31;10.00;99.90
4727;DHT22;2377;51.734;8.950;2023-02-18T07:27:58;9.90;99.90
4727;DHT22;2377;51.734;8.950;2023-02-18T07:30:26;10.00;99.90
4727;DHT22;2377;51.734;8.950;2023-02-18T07:32:53;10.00;99.90
4727;DHT22;2377;51.734;8.950;2023-02-18T07:35:20;9.90;99.90
4727;DHT22;2377;51.734;8.950;2023-02-18T07:37:48;10.00;99.90
4727;DHT22;2377;51.734;8.950;2023-02-18T07:40:19;10.00;99.90
4727;DHT22;2377;51.734;8.950;2023-02-18T07:42:48;10.00;99.90
4727;DHT22;2377;51.734;8.950;2023-02-18T07:45:15;10.00;99.90
4727;DHT22;2377;51.734;8.950;2023-02-18T07:47:42;10.00;99.90
4727;DHT22;2377;51.734;8.950;2023-02-18T07:50:13;10.00;99.90
4727;DHT22;2377;51.734;8.950;2023-02-18T07:52:40;10.00;99.90
4727;DHT22;2377;51.734;8.950;2023-02-18T07:55:07;10.00;99.90
4727;DHT22;2377;51.734;8.950;2023-02-18T07:57:36;10.00;99.90
4727;DHT22;2377;51.734;8.950;2023-02-18T08:00:22;9.90;99.90
4727;DHT22;2377;51.734;8.950;2023-02-18T08:02:49;10.00;99.90
4727;DHT22;2377;51.734;8.950;2023-02-18T08:05:16;9.90;99.90
4727;DHT22;2377;51.734;8.950;2023-02-18T08:07:43;9.90;99.90
4727;DHT22;2377;51.734;8.950;2023-02-18T08:10:11;10.00;99.90
4727;DHT22;2377;51.734;8.950;2023-02-18T08:12:40;10.00;99.90
4727;DHT22;2377;51.734;8.950;2023-02-18T08:15:08;10.00;99.90
4727;DHT22;2377;51.734;8.950;2023-02-18T08:17:35;10.00;99.90
4727;DHT22;2377;51.734;8.950;2023-02-18T08:20:03;10.00;99.90
4727;DHT22;2377;51.734;8.950;2023-02-18T08:22:31;10.00;99.90
4727;DHT22;2377;51.734;8.950;2023-02-18T08:24:58;10.00;99.90
4727;DHT22;2377;51.734;8.950;2023-02-18T08:27:25;10.00;99.90
4727;DHT22;2377;51.734;8.950;2023-02-18T08:29:53;10.00;99.90
4727;DHT22;2377;51.734;8.950;2023-02-18T08:32:21;10.00;99.90
4727;DHT22;2377;51.734;8.950;2023-02-18T08:34:48;10.00;99.90
4727;DHT22;2377;51.734;8.950;2023-02-18T08:37:15;10.00;99.90
4727;DHT22;2377;51.734;8.950;2023-02-18T08:39:42;10.00;99.90
4727;DHT22;2377;51.734;8.950;2023-02-18T08:42:09;9.90;99.90
4727;DHT22;2377;51.734;8.950;2023-02-18T08:44:36;10.00;99.90
4727;DHT22;2377;51.734;8.950;2023-02-18T08:47:05;10.00;99.90
4727;DHT22;2377;51.734;8.950;2023-02-18T08:49:32;10.00;99.90
4727;DHT22;2377;51.734;8.950;2023-02-18T08:52:01;10.00;99.90
4727;DHT22;2377;51.734;8.950;2023-02-18T08:54:28;9.90;99.90
4727;DHT22;2377;51.734;8.950;2023-02-18T08:56:56;9.90;99.90
4727;DHT22;2377;51.734;8.950;2023-02-18T08:59:24;9.90;99.90
4727;DHT22;2377;51.734;8.950;2023-02-18T09:01:52;10.00;99.90
4727;DHT22;2377;51.734;8.950;2023-02-18T09:04:21;9.90;99.90
4727;DHT22;2377;51.734;8.950;2023-02-18T09:06:48;10.00;99.90
4727;DHT22;2377;51.734;8.950;2023-02-18T09:09:16;10.00;99.90
4727;DHT22;2377;51.734;8.950;2023-02-18T09:11:44;9.90;99.90
4727;DHT22;2377;51.734;8.950;2023-02-18T09:14:13;9.90;99.90
4727;DHT22;2377;51.734;8.950;2023-02-18T09:16:40;9.90;99.90
4727;DHT22;2377;51.734;8.950;2023-02-18T09:19:08;9.80;99.90
4727;DHT22;2377;51.734;8.950;2023-02-18T09:21:37;9.90;99.90
4727;DHT22;2377;51.734;8.950;2023-02-18T09:24:04;9.80;99.90
4727;DHT22;2377;51.734;8.950;2023-02-18T09:26:35;9.80;99.90
4727;DHT22;2377;51.734;8.950;2023-02-18T09:29:04;9.80;99.90
4727;DHT22;2377;51.734;8.950;2023-02-18T09:31:31;9.80;99.90
4727;DHT22;2377;51.734;8.950;2023-02-18T09:34:02;9.70;99.90
4727;DHT22;2377;51.734;8.950;2023-02-18T09:36:31;9.80;99.90
4727;DHT22;2377;51.734;8.950;2023-02-18T09:39:00;9.70;99.90
4727;DHT22;2377;51.734;8.950;2023-02-18T09:41:31;9.60;99.90
4727;DHT22;2377;51.734;8.950;2023-02-18T09:44:08;9.70;99.90
4727;DHT22;2377;51.734;8.950;2023-02-18T09:46:42;9.60;99.90
4727;DHT22;2377;51.734;8.950;2023-02-18T09:49:16;9.70;99.90
4727;DHT22;2377;51.734;8.950;2023-02-18T09:51:46;9.60;99.90
4727;DHT22;2377;51.734;8.950;2023-02-18T09:54:17;9.60;99.90
4727;DHT22;2377;51.734;8.950;2023-02-18T09:56:46;9.60;99.90
4727;DHT22;2377;51.734;8.950;2023-02-18T09:59:17;9.60;99.90
4727;DHT22;2377;51.734;8.950;2023-02-18T10:01:48;9.60;99.90
4727;DHT22;2377;51.734;8.950;2023-02-18T10:04:20;9.60;99.90
4727;DHT22;2377;51.734;8.950;2023-02-18T10:06:51;9.60;99.90
4727;DHT22;2377;51.734;8.950;2023-02-18T10:09:24;9.70;99.90
4727;DHT22;2377;51.734;8.950;2023-02-18T10:11:56;9.70;99.90
4727;DHT22;2377;51.734;8.950;2023-02-18T10:14:26;9.60;99.90
4727;DHT22;2377;51.734;8.950;2023-02-18T10:16:55;9.60;99.90
4727;DHT22;2377;51.734;8.950;2023-02-18T10:19:28;9.60;99.90
4727;DHT22;2377;51.734;8.950;2023-02-18T10:22:00;9.70;99.90
4727;DHT22;2377;51.734;8.950;2023-02-18T10:24:33;9.70;99.90
4727;DHT22;2377;51.734;8.950;2023-02-18T10:27:05;9.70;99.90
4727;DHT22;2377;51.734;8.950;2023-02-18T10:29:34;9.70;99.90
4727;DHT22;2377;51.734;8.950;2023-02-18T10:32:06;9.60;99.90
4727;DHT22;2377;51.734;8.950;2023-02-18T10:34:46;9.60;99.90
4727;DHT22;2377;51.734;8.950;2023-02-18T10:37:50;9.60;99.90
4727;DHT22;2377;51.734;8.950;2023-02-18T10:40:29;9.50;99.90
4727;DHT22;2377;51.734;8.950;2023-02-18T10:43:13;9.50;99.90
4727;DHT22;2377;51.734;8.950;2023-02-18T10:45:51;9.50;99.90
4727;DHT22;2377;51.734;8.950;2023-02-18T10:48:55;9.50;99.90
4727;DHT22;2377;51.734;8.950;2023-02-18T10:51:33;9.40;99.90
4727;DHT22;2377;51.734;8.950;2023-02-18T10:54:03;9.40;99.90
4727;DHT22;2377;51.734;8.950;2023-02-18T10:56:38;9.30;99.90
4727;DHT22;2377;51.734;8.950;2023-02-18T10:59:11;9.30;99.90
4727;DHT22;2377;51.734;8.950;2023-02-18T11:01:41;9.30;99.90
4727;DHT22;2377;51.734;8.950;2023-02-18T11:04:15;9.30;99.90
4727;DHT22;2377;51.734;8.950;2023-02-18T11:06:46;9.20;99.90
4727;DHT22;2377;51.734;8.950;2023-02-18T11:09:28;9.30;99.90
4727;DHT22;2377;51.734;8.950;2023-02-18T11:12:03;9.10;99.90
4727;DHT22;2377;51.734;8.950;2023-02-18T11:14:38;9.20;99.90
4727;DHT22;2377;51.734;8.950;2023-02-18T11:17:17;9.20;99.90
4727;DHT22;2377;51.734;8.950;2023-02-18T11:19:55;9.20;99.90
4727;DHT22;2377;51.734;8.950;2023-02-18T11:22:28;9.10;99.90
4727;DHT22;2377;51.734;8.950;2023-02-18T11:24:58;9.10;99.90
4727;DHT22;2377;51.734;8.950;2023-02-18T11:27:31;9.00;99.90
4727;DHT22;2377;51.734;8.950;2023-02-18T11:30:18;9.00;99.90
4727;DHT22;2377;51.734;8.950;2023-02-18T11:32:48;9.10;99.90
4727;DHT22;2377;51.734;8.950;2023-02-18T11:35:20;9.10;99.90
4727;DHT22;2377;51.734;8.950;2023-02-18T11:37:51;9.10;99.90
4727;DHT22;2377;51.734;8.950;2023-02-18T11:40:21;9.00;99.90
4727;DHT22;2377;51.734;8.950;2023-02-18T11:43:02;9.00;99.90
4727;DHT22;2377;51.734;8.950;2023-02-18T11:45:32;9.10;99.90
4727;DHT22;2377;51.734;8.950;2023-02-18T11:48:05;9.00;99.90
4727;DHT22;2377;51.734;8.950;2023-02-18T11:50:34;9.00;99.90
4727;DHT22;2377;51.734;8.950;2023-02-18T11:53:25;9.00;99.90
4727;DHT22;2377;51.734;8.950;2023-02-18T11:55:56;9.00;99.90
4727;DHT22;2377;51.734;8.950;2023-02-18T11:58:28;9.00;99.90
4727;DHT22;2377;51.734;8.950;2023-02-18T12:01:05;9.00;99.90
4727;DHT22;2377;51.734;8.950;2023-02-18T12:03:45;9.00;99.90
4727;DHT22;2377;51.734;8.950;2023-02-18T12:06:22;9.00;99.90
4727;DHT22;2377;51.734;8.950;2023-02-18T12:08:58;9.00;99.90
4727;DHT22;2377;51.734;8.950;2023-02-18T12:11:33;9.00;99.90
4727;DHT22;2377;51.734;8.950;2023-02-18T12:14:15;9.00;99.90
4727;DHT22;2377;51.734;8.950;2023-02-18T12:16:54;8.90;99.90
4727;DHT22;2377;51.734;8.950;2023-02-18T12:19:46;9.00;99.90
4727;DHT22;2377;51.734;8.950;2023-02-18T12:22:33;9.00;99.90
4727;DHT22;2377;51.734;8.950;2023-02-18T12:25:24;9.00;99.90
4727;DHT22;2377;51.734;8.950;2023-02-18T12:28:21;9.00;99.90
4727;DHT22;2377;51.734;8.950;2023-02-18T12:31:19;9.00;99.90
4727;DHT22;2377;51.734;8.950;2023-02-18T12:34:15;9.00;99.90
4727;DHT22;2377;51.734;8.950;2023-02-18T12:37:04;9.00;99.90
4727;DHT22;2377;51.734;8.950;2023-02-18T12:39:54;9.00;99.90
4727;DHT22;2377;51.734;8.950;2023-02-18T12:42:41;9.00;99.90
4727;DHT22;2377;51.734;8.950;2023-02-18T12:45:40;8.90;99.90
4727;DHT22;2377;51.734;8.950;2023-02-18T12:48:37;9.00;99.90
4727;DHT22;2377;51.734;8.950;2023-02-18T12:51:25;9.00;99.90
4727;DHT22;2377;51.734;8.950;2023-02-18T12:54:12;8.90;99.90
4727;DHT22;2377;51.734;8.950;2023-02-18T12:57:21;9.00;99.90
4727;DHT22;2377;51.734;8.950;2023-02-18T13:00:11;9.00;99.90
4727;DHT22;2377;51.734;8.950;2023-02-18T13:03:32;9.00;99.90
4727;DHT22;2377;51.734;8.950;2023-02-18T13:06:37;9.00;99.90
4727;DHT22;2377;51.734;8.950;2023-02-18T13:09:19;9.00;99.90
4727;DHT22;2377;51.734;8.950;2023-02-18T13:12:03;9.00;99.90
4727;DHT22;2377;51.734;8.950;2023-02-18T13:14:46;9.00;99.90
4727;DHT22;2377;51.734;8.950;2023-02-18T13:17:22;8.90;99.90
4727;DHT22;2377;51.734;8.950;2023-02-18T13:19:58;8.90;99.90
4727;DHT22;2377;51.734;8.950;2023-02-18T13:22:29;8.90;99.90
4727;DHT22;2377;51.734;8.950;2023-02-18T13:24:58;9.00;99.90
4727;DHT22;2377;51.734;8.950;2023-02-18T13:27:32;9.00;99.90
4727;DHT22;2377;51.734;8.950;2023-02-18T13:30:15;9.00;99.90
4727;DHT22;2377;51.734;8.950;2023-02-18T13:32:57;9.00;99.90
4727;DHT22;2377;51.734;8.950;2023-02-18T13:35:38;9.00;99.90
4727;DHT22;2377;51.734;8.950;2023-02-18T13:38:52;9.00;99.90
4727;DHT22;2377;51.734;8.950;2023-02-18T13:41:25;9.00;99.90
4727;DHT22;2377;51.734;8.950;2023-02-18T13:43:53;9.00;99.90
4727;DHT22;2377;51.734;8.950;2023-02-18T13:46:21;9.00;99.90
4727;DHT22;2377;51.734;8.950;2023-02-18T13:48:50;9.00;99.90
4727;DHT22;2377;51.734;8.950;2023-02-18T13:51:31;9.00;99.90
4727;DHT22;2377;51.734;8.950;2023-02-18T13:54:12;9.00;99.90
4727;DHT22;2377;51.734;8.950;2023-02-18T13:56:50;9.10;99.90
4727;DHT22;2377;51.734;8.950;2023-02-18T13:59:24;9.10;99.90
4727;DHT22;2377;51.734;8.950;2023-02-18T14:02:27;9.20;99.90
4727;DHT22;2377;51.734;8.950;2023-02-18T14:04:57;9.10;99.90
4727;DHT22;2377;51.734;8.950;2023-02-18T14:07:46;9.10;99.90
4727;DHT22;2377;51.734;8.950;2023-02-18T14:10:31;9.00;99.90
4727;DHT22;2377;51.734;8.950;2023-02-18T14:13:17;9.00;99.90
4727;DHT22;2377;51.734;8.950;2023-02-18T14:16:04;9.10;99.90
4727;DHT22;2377;51.734;8.950;2023-02-18T14:21:40;9.10;99.90
4727;DHT22;2377;51.734;8.950;2023-02-18T14:24:11;9.10;99.90
4727;DHT22;2377;51.734;8.950;2023-02-18T14:26:43;9.10;99.90
4727;DHT22;2377;51.734;8.950;2023-02-18T14:29:17;9.10;99.90
4727;DHT22;2377;51.734;8.950;2023-02-18T14:31:51;9.20;99.90
4727;DHT22;2377;51.734;8.950;2023-02-18T14:34:45;9.20;99.90
4727;DHT22;2377;51.734;8.950;2023-02-18T14:38:03;9.10;99.90
4727;DHT22;2377;51.734;8.950;2023-02-18T14:41:03;9.20;99.90
4727;DHT22;2377;51.734;8.950;2023-02-18T14:43:58;9.10;99.90
4727;DHT22;2377;51.734;8.950;2023-02-18T14:46:56;9.10;99.90
4727;DHT22;2377;51.734;8.950;2023-02-18T14:49:37;9.20;99.90
4727;DHT22;2377;51.734;8.950;2023-02-18T14:52:13;9.20;99.90
4727;DHT22;2377;51.734;8.950;2023-02-18T14:54:48;9.10;99.90
4727;DHT22;2377;51.734;8.950;2023-02-18T14:57:17;9.30;99.90
4727;DHT22;2377;51.734;8.950;2023-02-18T14:59:56;9.20;99.90
4727;DHT22;2377;51.734;8.950;2023-02-18T15:02:27;9.30;99.90
4727;DHT22;2377;51.734;8.950;2023-02-18T15:05:11;9.20;99.90
4727;DHT22;2377;51.734;8.950;2023-02-18T15:07:40;9.20;99.90
4727;DHT22;2377;51.734;8.950;2023-02-18T15:10:13;9.30;99.90
4727;DHT22;2377;51.734;8.950;2023-02-18T15:12:42;9.30;99.90
4727;DHT22;2377;51.734;8.950;2023-02-18T15:15:13;9.30;99.90
4727;DHT22;2377;51.734;8.950;2023-02-18T15:17:45;9.30;99.90
4727;DHT22;2377;51.734;8.950;2023-02-18T15:20:14;9.20;99.90
4727;DHT22;2377;51.734;8.950;2023-02-18T15:22:42;9.20;99.90
4727;DHT22;2377;51.734;8.950;2023-02-18T15:25:11;9.20;99.90
4727;DHT22;2377;51.734;8.950;2023-02-18T15:27:43;9.20;99.90
4727;DHT22;2377;51.734;8.950;2023-02-18T15:30:20;9.30;99.90
4727;DHT22;2377;51.734;8.950;2023-02-18T15:32:52;9.30;99.90
4727;DHT22;2377;51.734;8.950;2023-02-18T15:35:22;9.30;99.90
4727;DHT22;2377;51.734;8.950;2023-02-18T15:37:55;9.30;99.90
4727;DHT22;2377;51.734;8.950;2023-02-18T15:40:26;9.30;99.90
4727;DHT22;2377;51.734;8.950;2023-02-18T15:42:59;9.30;99.90
4727;DHT22;2377;51.734;8.950;2023-02-18T15:45:31;9.30;99.90
4727;DHT22;2377;51.734;8.950;2023-02-18T15:48:01;9.30;99.90
4727;DHT22;2377;51.734;8.950;2023-02-18T15:50:31;9.30;99.90
4727;DHT22;2377;51.734;8.950;2023-02-18T15:53:04;9.30;99.90
4727;DHT22;2377;51.734;8.950;2023-02-18T15:55:36;9.30;99.90
4727;DHT22;2377;51.734;8.950;2023-02-18T15:58:11;9.30;99.90
4727;DHT22;2377;51.734;8.950;2023-02-18T16:00:47;9.30;99.90
4727;DHT22;2377;51.734;8.950;2023-02-18T16:03:20;9.30;99.90
4727;DHT22;2377;51.734;8.950;2023-02-18T16:05:50;9.40;99.90
4727;DHT22;2377;51.734;8.950;2023-02-18T16:08:23;9.30;99.90
4727;DHT22;2377;51.734;8.950;2023-02-18T16:10:54;9.30;99.90
4727;DHT22;2377;51.734;8.950;2023-02-18T16:13:26;9.40;99.90
4727;DHT22;2377;51.734;8.950;2023-02-18T16:15:56;9.30;99.90
4727;DHT22;2377;51.734;8.950;2023-02-18T16:18:28;9.40;99.90
4727;DHT22;2377;51.734;8.950;2023-02-18T16:21:00;9.30;99.90
4727;DHT22;2377;51.734;8.950;2023-02-18T16:23:35;9.30;99.90
4727;DHT22;2377;51.734;8.950;2023-02-18T16:26:19;9.30;99.90
4727;DHT22;2377;51.734;8.950;2023-02-18T16:28:51;9.30;99.90
4727;DHT22;2377;51.734;8.950;2023-02-18T16:31:20;9.30;99.90
4727;DHT22;2377;51.734;8.950;2023-02-18T16:33:47;9.30;99.90
4727;DHT22;2377;51.734;8.950;2023-02-18T16:36:15;9.30;99.90
4727;DHT22;2377;51.734;8.950;2023-02-18T16:38:44;9.30;99.90
4727;DHT22;2377;51.734;8.950;2023-02-18T16:41:12;9.40;99.90
4727;DHT22;2377;51.734;8.950;2023-02-18T16:43:40;9.30;99.90
4727;DHT22;2377;51.734;8.950;2023-02-18T16:46:13;9.30;99.90
4727;DHT22;2377;51.734;8.950;2023-02-18T16:48:43;9.30;99.90
4727;DHT22;2377;51.734;8.950;2023-02-18T16:51:16;9.40;99.90
4727;DHT22;2377;51.734;8.950;2023-02-18T16:53:46;9.30;99.90
4727;DHT22;2377;51.734;8.950;2023-02-18T16:56:15;9.30;99.90
4727;DHT22;2377;51.734;8.950;2023-02-18T16:58:43;9.40;99.90
4727;DHT22;2377;51.734;8.950;2023-02-18T17:01:23;9.50;99.90
4727;DHT22;2377;51.734;8.950;2023-02-18T17:03:53;9.50;99.90